Time;durP1;ratioP1;P1;durP2;ratioP2;P2;SDS_P1;SDS_P2;PMS_P1;PMS_P2;Temp;Humidity;BMP_temperature;BMP_pressure;BME280_temperature;BME280_humidity;BME280_pressure;Samples;Min_cycle;Max_cycle;Signal;HPM_P1;HPM_P2
2020/12/27 00:01:30;;;;;;;6.97;6.47;;;;;;;;;;4995670;28;20659;-85
2020/12/27 00:04:03;;;;;;;6.50;6.10;;;;;;;;;;4995296;28;20700;-85
2020/12/27 00:06:35;;;;;;;6.37;5.90;;;;;;;;;;4995748;28;20287;-85
2020/12/27 00:09:09;;;;;;;6.80;6.10;;;;;;;;;;4996479;28;20189;-85
2020/12/27 00:11:38;;;;;;;6.60;6.03;;;;;;;;;;4995259;28;20263;-84
2020/12/27 00:14:04;;;;;;;5.23;4.90;;;;;;;;;;4996377;28;20225;-84
2020/12/27 00:16:38;;;;;;;6.93;6.33;;;;;;;;;;4995249;28;20180;-84
2020/12/27 00:19:06;;;;;;;8.47;5.97;;;;;;;;;;4996612;28;20185;-84
2020/12/27 00:21:32;;;;;;;7.00;6.50;;;;;;;;;;4996211;28;20649;-84
2020/12/27 00:24:04;;;;;;;6.47;5.97;;;;;;;;;;4994853;28;20239;-83
2020/12/27 00:26:35;;;;;;;7.00;6.50;;;;;;;;;;4996299;28;20174;-83
2020/12/27 00:29:01;;;;;;;6.57;6.07;;;;;;;;;;4996200;28;20186;-83
2020/12/27 00:31:27;;;;;;;4.63;4.33;;;;;;;;;;4994876;28;20188;-83
2020/12/27 00:33:59;;;;;;;6.47;5.93;;;;;;;;;;4994816;28;20196;-83
2020/12/27 00:36:28;;;;;;;7.63;6.00;;;;;;;;;;4995954;28;20178;-83
2020/12/27 00:38:55;;;;;;;5.70;5.30;;;;;;;;;;4996013;28;20224;-85
2020/12/27 00:41:22;;;;;;;8.33;5.07;;;;;;;;;;4994791;28;20182;-86
2020/12/27 00:43:51;;;;;;;5.20;4.90;;;;;;;;;;4995922;28;20194;-85
2020/12/27 00:46:20;;;;;;;4.87;4.57;;;;;;;;;;4996038;28;20200;-85
2020/12/27 00:48:47;;;;;;;6.07;5.67;;;;;;;;;;4995868;28;20700;-84
2020/12/27 00:51:13;;;;;;;6.43;5.93;;;;;;;;;;4996027;28;20179;-85
2020/12/27 00:53:39;;;;;;;6.53;5.53;;;;;;;;;;4995748;28;20194;-84
2020/12/27 00:56:09;;;;;;;5.97;5.40;;;;;;;;;;4995828;28;20166;-84
2020/12/27 00:58:35;;;;;;;5.87;5.40;;;;;;;;;;4994574;28;20179;-84
2020/12/27 01:01:03;;;;;;;5.50;5.07;;;;;;;;;;4995870;28;20676;-85
2020/12/27 01:03:29;;;;;;;8.77;5.60;;;;;;;;;;4994062;28;20239;-85
2020/12/27 01:05:57;;;;;;;5.37;5.03;;;;;;;;;;4994325;28;20188;-84
2020/12/27 01:08:27;;;;;;;5.40;4.97;;;;;;;;;;4994174;28;20209;-85
2020/12/27 01:10:55;;;;;;;5.27;4.97;;;;;;;;;;4994168;28;20713;-85
2020/12/27 01:13:23;;;;;;;4.60;4.30;;;;;;;;;;4995576;28;20176;-84
2020/12/27 01:15:50;;;;;;;5.67;5.27;;;;;;;;;;4994486;28;20656;-84
2020/12/27 01:18:17;;;;;;;5.40;5.03;;;;;;;;;;4994141;28;20618;-84
2020/12/27 01:20:44;;;;;;;5.63;5.20;;;;;;;;;;4995229;28;20188;-84
2020/12/27 01:23:13;;;;;;;6.33;5.80;;;;;;;;;;4995293;28;20181;-85
2020/12/27 01:25:45;;;;;;;5.53;5.10;;;;;;;;;;4993732;28;20208;-85
2020/12/27 01:28:16;;;;;;;5.60;5.20;;;;;;;;;;4995335;28;20302;-85
2020/12/27 01:30:42;;;;;;;5.30;4.67;;;;;;;;;;4995061;28;20661;-85
2020/12/27 01:33:09;;;;;;;6.37;4.50;;;;;;;;;;4993756;28;20188;-84
2020/12/27 01:35:35;;;;;;;5.37;4.97;;;;;;;;;;4993648;28;20205;-84
2020/12/27 01:38:01;;;;;;;4.50;4.20;;;;;;;;;;4994908;28;20185;-84
2020/12/27 01:40:27;;;;;;;5.53;5.13;;;;;;;;;;4995100;28;20537;-85
2020/12/27 01:43:01;;;;;;;5.30;4.43;;;;;;;;;;4994862;28;20184;-85
2020/12/27 01:45:30;;;;;;;5.40;4.90;;;;;;;;;;4993486;28;20207;-85
2020/12/27 01:48:01;;;;;;;4.47;4.17;;;;;;;;;;4994579;28;20209;-85
2020/12/27 01:50:34;;;;;;;4.67;4.37;;;;;;;;;;4995232;28;20184;-85
2020/12/27 01:53:01;;;;;;;6.30;5.70;;;;;;;;;;4994618;28;20241;-83
2020/12/27 01:55:31;;;;;;;4.87;4.57;;;;;;;;;;4994565;28;20194;-83
2020/12/27 01:58:30;;;;;;;5.17;4.67;;;;;;;;;;4994539;28;20219;-83
2020/12/27 02:00:59;;;;;;;4.00;3.70;;;;;;;;;;4962486;28;20257;-82
2020/12/27 02:03:35;;;;;;;4.40;4.10;;;;;;;;;;4993122;28;20182;-85
2020/12/27 02:06:06;;;;;;;5.00;4.60;;;;;;;;;;4993101;28;20646;-84
2020/12/27 02:08:37;;;;;;;4.90;4.43;;;;;;;;;;4994281;28;20212;-84
2020/12/27 02:11:06;;;;;;;4.23;3.93;;;;;;;;;;4994275;28;20266;-85
2020/12/27 02:13:32;;;;;;;4.00;3.70;;;;;;;;;;4992999;28;20206;-84
2020/12/27 02:16:04;;;;;;;3.67;3.47;;;;;;;;;;4993046;28;20181;-84
2020/12/27 02:18:32;;;;;;;3.70;3.50;;;;;;;;;;4992553;28;20270;-85
2020/12/27 02:21:01;;;;;;;4.30;4.00;;;;;;;;;;4994186;28;20548;-85
2020/12/27 02:23:30;;;;;;;3.63;3.43;;;;;;;;;;4992839;28;20193;-84
2020/12/27 02:26:01;;;;;;;4.20;3.90;;;;;;;;;;4994064;28;20177;-85
2020/12/27 02:28:32;;;;;;;3.70;3.40;;;;;;;;;;4992685;28;20228;-84
2020/12/27 02:31:02;;;;;;;3.63;3.23;;;;;;;;;;4992771;28;20190;-84
2020/12/27 02:33:32;;;;;;;3.97;3.67;;;;;;;;;;4992672;28;20182;-84
2020/12/27 02:36:04;;;;;;;3.83;3.63;;;;;;;;;;4994013;28;20174;-84
2020/12/27 02:38:30;;;;;;;3.80;3.50;;;;;;;;;;4992574;28;20186;-84
2020/12/27 02:41:01;;;;;;;3.43;3.10;;;;;;;;;;4994226;28;20181;-85
2020/12/27 02:43:33;;;;;;;3.30;3.10;;;;;;;;;;4993726;28;20182;-84
2020/12/27 02:46:04;;;;;;;3.47;3.17;;;;;;;;;;4993897;28;20217;-84
2020/12/27 02:48:35;;;;;;;3.10;2.90;;;;;;;;;;4993699;28;20208;-85
2020/12/27 02:51:08;;;;;;;3.47;3.17;;;;;;;;;;4992515;28;20178;-84
2020/12/27 02:53:35;;;;;;;3.33;2.93;;;;;;;;;;4993914;28;20188;-84
2020/12/27 02:56:05;;;;;;;3.23;3.03;;;;;;;;;;4992487;28;20293;-85
2020/12/27 02:58:38;;;;;;;3.17;2.87;;;;;;;;;;4993728;28;20207;-84
2020/12/27 03:01:09;;;;;;;3.27;3.07;;;;;;;;;;4992484;28;20178;-84
2020/12/27 03:03:39;;;;;;;2.90;2.70;;;;;;;;;;4992195;28;20182;-84
2020/12/27 03:06:11;;;;;;;2.60;2.50;;;;;;;;;;4992418;28;20189;-84
2020/12/27 03:08:44;;;;;;;2.80;2.60;;;;;;;;;;4992289;28;20621;-84
2020/12/27 03:11:21;;;;;;;2.97;2.77;;;;;;;;;;4992636;28;20178;-84
2020/12/27 03:13:51;;;;;;;2.77;2.57;;;;;;;;;;4992288;28;20209;-84
2020/12/27 03:16:24;;;;;;;2.67;2.57;;;;;;;;;;4992374;28;20204;-84
2020/12/27 03:18:51;;;;;;;2.97;2.67;;;;;;;;;;4993551;28;20638;-84
2020/12/27 03:21:25;;;;;;;3.07;2.87;;;;;;;;;;4992217;28;20270;-85
2020/12/27 03:24:01;;;;;;;2.80;2.70;;;;;;;;;;4993455;28;20198;-85
2020/12/27 03:26:35;;;;;;;3.07;2.87;;;;;;;;;;4993588;28;20265;-85
2020/12/27 03:29:08;;;;;;;2.97;2.80;;;;;;;;;;4994022;28;20202;-85
2020/12/27 03:31:41;;;;;;;2.53;2.33;;;;;;;;;;4995981;28;20182;-85
2020/12/27 03:34:15;;;;;;;2.40;2.30;;;;;;;;;;4995853;28;20198;-85
2020/12/27 03:36:50;;;;;;;2.50;2.40;;;;;;;;;;4996489;28;20601;-85
2020/12/27 03:39:21;;;;;;;2.60;2.50;;;;;;;;;;4997500;28;20241;-84
2020/12/27 03:41:55;;;;;;;2.83;2.63;;;;;;;;;;4995791;28;20268;-85
2020/12/27 03:44:25;;;;;;;4.93;4.37;;;;;;;;;;4995810;28;20252;-85
2020/12/27 03:46:51;;;;;;;3.23;3.03;;;;;;;;;;4996938;28;20178;-85
2020/12/27 03:49:26;;;;;;;3.40;3.20;;;;;;;;;;4996860;28;20181;-85
2020/12/27 03:51:54;;;;;;;3.80;3.50;;;;;;;;;;4995682;28;20658;-85
2020/12/27 03:54:29;;;;;;;3.63;3.33;;;;;;;;;;4996867;28;20193;-85
2020/12/27 03:57:00;;;;;;;3.30;3.10;;;;;;;;;;4996796;28;20174;-85
2020/12/27 03:59:31;;;;;;;3.67;3.37;;;;;;;;;;4996687;28;20218;-85
2020/12/27 04:02:04;;;;;;;3.73;3.33;;;;;;;;;;4996782;28;20223;-85
2020/12/27 04:04:35;;;;;;;3.40;3.20;;;;;;;;;;4995457;28;20248;-85
2020/12/27 04:07:05;;;;;;;3.73;3.43;;;;;;;;;;4995257;28;20204;-85
2020/12/27 04:09:38;;;;;;;3.40;3.20;;;;;;;;;;4995205;28;20635;-85
2020/12/27 04:12:13;;;;;;;2.17;2.07;;;;;;;;;;4997011;28;20181;-85
2020/12/27 04:14:45;;;;;;;3.00;2.80;;;;;;;;;;4996655;28;20254;-84
2020/12/27 04:17:21;;;;;;;2.83;2.73;;;;;;;;;;4996334;28;20209;-85
2020/12/27 04:19:47;;;;;;;3.17;2.90;;;;;;;;;;4996011;28;20552;-85
2020/12/27 04:22:19;;;;;;;3.00;2.90;;;;;;;;;;4996347;28;20181;-84
2020/12/27 04:24:50;;;;;;;3.20;3.00;;;;;;;;;;4995009;28;20232;-85
2020/12/27 04:27:24;;;;;;;5.10;2.80;;;;;;;;;;4996202;28;20677;-84
2020/12/27 04:29:54;;;;;;;3.33;3.10;;;;;;;;;;4994948;28;20185;-85
2020/12/27 04:32:29;;;;;;;2.90;2.70;;;;;;;;;;4996419;28;20177;-85
2020/12/27 04:35:01;;;;;;;3.67;3.37;;;;;;;;;;4994762;28;20194;-84
2020/12/27 04:37:35;;;;;;;2.97;2.80;;;;;;;;;;4996030;28;20530;-84
2020/12/27 04:40:01;;;;;;;2.87;2.67;;;;;;;;;;4994474;28;20185;-84
2020/12/27 04:42:35;;;;;;;2.87;2.67;;;;;;;;;;4994721;28;20264;-84
2020/12/27 04:45:02;;;;;;;2.90;2.70;;;;;;;;;;4996220;28;20225;-84
2020/12/27 04:47:34;;;;;;;3.60;3.30;;;;;;;;;;4996399;28;20206;-84
2020/12/27 04:50:01;;;;;;;3.10;2.90;;;;;;;;;;4995742;28;20259;-84
2020/12/27 04:52:35;;;;;;;4.73;3.27;;;;;;;;;;4994489;28;20673;-84
2020/12/27 04:55:10;;;;;;;3.37;3.17;;;;;;;;;;4995776;28;20218;-84
2020/12/27 04:57:46;;;;;;;3.40;3.10;;;;;;;;;;4995990;28;20177;-84
2020/12/27 05:00:20;;;;;;;3.90;3.00;;;;;;;;;;4995943;28;20643;-84
2020/12/27 05:02:52;;;;;;;3.10;2.80;;;;;;;;;;4995914;28;20181;-84
2020/12/27 05:05:23;;;;;;;7.23;2.90;;;;;;;;;;4994123;28;20633;-84
2020/12/27 05:08:01;;;;;;;2.80;2.60;;;;;;;;;;4994132;28;20213;-85
2020/12/27 05:10:35;;;;;;;3.03;2.83;;;;;;;;;;4994244;28;20184;-85
2020/12/27 05:13:02;;;;;;;2.63;2.40;;;;;;;;;;4994162;28;20181;-84
2020/12/27 05:15:36;;;;;;;5.87;3.13;;;;;;;;;;4995303;28;20199;-84
2020/12/27 05:18:09;;;;;;;2.53;2.33;;;;;;;;;;4994119;28;20275;-84
2020/12/27 05:20:42;;;;;;;3.03;2.83;;;;;;;;;;4995339;28;20194;-84
2020/12/27 05:23:12;;;;;;;3.53;2.70;;;;;;;;;;4993983;28;20188;-84
2020/12/27 05:25:44;;;;;;;2.93;2.63;;;;;;;;;;4993863;28;20219;-84
2020/12/27 05:28:21;;;;;;;2.60;2.40;;;;;;;;;;4995194;28;20211;-84
2020/12/27 05:30:55;;;;;;;2.80;2.60;;;;;;;;;;4993780;28;20181;-84
2020/12/27 05:33:26;;;;;;;2.43;2.30;;;;;;;;;;4993694;28;20180;-84
2020/12/27 05:36:04;;;;;;;2.90;2.70;;;;;;;;;;4993740;28;20184;-84
2020/12/27 05:38:35;;;;;;;3.00;2.70;;;;;;;;;;4994866;28;20191;-84
2020/12/27 05:41:08;;;;;;;3.07;2.87;;;;;;;;;;4993647;28;20236;-84
2020/12/27 05:43:37;;;;;;;7.90;2.90;;;;;;;;;;4994878;28;20181;-84
2020/12/27 05:46:11;;;;;;;3.40;2.73;;;;;;;;;;4994853;28;20203;-84
2020/12/27 05:48:40;;;;;;;3.07;2.77;;;;;;;;;;4994680;28;20256;-84
2020/12/27 05:51:16;;;;;;;3.37;3.03;;;;;;;;;;4993489;28;20185;-85
2020/12/27 05:53:49;;;;;;;9.30;3.97;;;;;;;;;;4992904;28;20196;-84
2020/12/27 05:56:24;;;;;;;4.33;3.90;;;;;;;;;;4993300;28;20178;-84
2020/12/27 05:59:01;;;;;;;3.40;3.10;;;;;;;;;;4994791;28;20166;-84
2020/12/27 06:01:34;;;;;;;7.70;4.27;;;;;;;;;;4993318;28;20243;-85
2020/12/27 06:04:07;;;;;;;4.03;3.73;;;;;;;;;;4994293;28;20209;-85
2020/12/27 06:06:56;;;;;;;3.20;3.00;;;;;;;;;;4994515;28;20183;-85
2020/12/27 06:09:35;;;;;;;3.30;3.07;;;;;;;;;;4994966;28;20165;-84
2020/12/27 06:12:09;;;;;;;3.20;3.00;;;;;;;;;;4993024;28;20204;-84
2020/12/27 06:14:45;;;;;;;4.50;3.47;;;;;;;;;;4993005;28;20201;-84
2020/12/27 06:17:30;;;;;;;4.73;3.20;;;;;;;;;;4993705;28;20179;-84
2020/12/27 06:20:01;;;;;;;3.83;3.53;;;;;;;;;;4994552;28;20180;-84
2020/12/27 06:22:34;;;;;;;3.30;3.10;;;;;;;;;;4992876;28;20228;-84
2020/12/27 06:25:10;;;;;;;3.73;3.43;;;;;;;;;;4993948;28;20199;-84
2020/12/27 06:27:46;;;;;;;3.03;2.80;;;;;;;;;;4992796;28;20202;-84
2020/12/27 06:30:29;;;;;;;3.07;2.87;;;;;;;;;;4993396;28;20648;-84
2020/12/27 06:33:05;;;;;;;3.27;2.67;;;;;;;;;;4992774;28;20173;-84
2020/12/27 06:35:33;;;;;;;5.20;3.00;;;;;;;;;;4992683;28;20694;-84
2020/12/27 06:38:15;;;;;;;5.07;3.13;;;;;;;;;;4994005;28;20525;-84
2020/12/27 06:40:49;;;;;;;2.97;2.77;;;;;;;;;;4994553;28;20172;-84
2020/12/27 06:43:26;;;;;;;3.40;3.10;;;;;;;;;;4994136;28;20195;-84
2020/12/27 06:45:57;;;;;;;4.20;2.73;;;;;;;;;;4992566;28;20276;-84
2020/12/27 06:48:40;;;;;;;3.63;3.33;;;;;;;;;;4992486;28;20688;-84
2020/12/27 06:51:15;;;;;;;3.20;2.90;;;;;;;;;;4992603;28;20260;-84
2020/12/27 06:53:45;;;;;;;3.00;2.80;;;;;;;;;;4992401;28;20200;-84
2020/12/27 06:56:15;;;;;;;3.53;3.17;;;;;;;;;;4993743;28;20221;-84
2020/12/27 06:58:44;;;;;;;3.20;3.00;;;;;;;;;;4993797;28;20170;-84
2020/12/27 07:01:23;;;;;;;2.83;2.63;;;;;;;;;;4994005;28;20720;-84
2020/12/27 07:04:15;;;;;;;3.97;3.57;;;;;;;;;;4995248;28;20690;-84
2020/12/27 07:06:45;;;;;;;2.83;2.63;;;;;;;;;;5020050;23;20223;-85
2020/12/27 07:09:25;;;;;;;3.07;2.87;;;;;;;;;;4996530;28;20553;-84
2020/12/27 07:12:21;;;;;;;3.70;3.40;;;;;;;;;;4997703;28;20181;-85
2020/12/27 07:14:53;;;;;;;3.83;3.50;;;;;;;;;;4994912;28;20184;-85
2020/12/27 07:17:27;;;;;;;3.53;3.23;;;;;;;;;;4998011;28;20669;-85
2020/12/27 07:20:04;;;;;;;3.07;2.87;;;;;;;;;;4997385;28;20181;-85
2020/12/27 07:22:55;;;;;;;3.53;3.30;;;;;;;;;;4997742;28;20173;-85
2020/12/27 07:25:30;;;;;;;6.83;3.43;;;;;;;;;;4996073;28;20647;-85
2020/12/27 07:28:04;;;;;;;3.37;3.13;;;;;;;;;;4997526;28;20574;-85
2020/12/27 07:30:31;;;;;;;3.33;3.13;;;;;;;;;;4996101;28;20179;-85
2020/12/27 07:33:09;;;;;;;3.53;2.93;;;;;;;;;;4996040;28;20172;-85
2020/12/27 07:35:40;;;;;;;3.30;3.00;;;;;;;;;;4995940;28;20177;-85
2020/12/27 07:38:11;;;;;;;5.33;3.10;;;;;;;;;;4995869;28;20242;-85
2020/12/27 07:40:42;;;;;;;3.63;3.33;;;;;;;;;;4995875;28;20542;-85
2020/12/27 07:43:11;;;;;;;3.10;2.90;;;;;;;;;;4996992;28;20211;-85
2020/12/27 07:45:44;;;;;;;4.13;3.03;;;;;;;;;;4995661;28;20185;-85
2020/12/27 07:48:11;;;;;;;3.63;3.37;;;;;;;;;;4997115;28;20201;-85
2020/12/27 07:50:40;;;;;;;2.93;2.73;;;;;;;;;;4997204;28;20178;-85
2020/12/27 07:53:16;;;;;;;4.67;2.87;;;;;;;;;;4997107;28;20172;-85
2020/12/27 07:55:51;;;;;;;2.80;2.60;;;;;;;;;;4997171;28;20171;-86
2020/12/27 07:58:25;;;;;;;3.33;3.13;;;;;;;;;;4997031;28;20177;-85
2020/12/27 08:00:55;;;;;;;3.23;2.90;;;;;;;;;;4995495;28;20184;-85
2020/12/27 08:03:28;;;;;;;3.23;3.03;;;;;;;;;;4996893;28;20660;-85
2020/12/27 08:06:05;;;;;;;3.33;3.13;;;;;;;;;;4996568;28;20683;-85
2020/12/27 08:08:38;;;;;;;3.10;2.90;;;;;;;;;;4995363;28;20209;-85
2020/12/27 08:11:04;;;;;;;3.50;3.20;;;;;;;;;;4995597;28;20260;-85
2020/12/27 08:13:36;;;;;;;3.30;3.07;;;;;;;;;;4996531;28;20171;-85
2020/12/27 08:16:12;;;;;;;2.60;2.47;;;;;;;;;;4994340;28;20202;-85
2020/12/27 08:18:44;;;;;;;4.10;3.70;;;;;;;;;;4995147;28;20182;-85
2020/12/27 08:21:11;;;;;;;7.00;2.90;;;;;;;;;;4996446;28;20188;-85
2020/12/27 08:23:45;;;;;;;4.17;3.03;;;;;;;;;;4995062;28;20179;-85
2020/12/27 08:26:17;;;;;;;6.17;2.90;;;;;;;;;;4995419;28;20285;-85
2020/12/27 08:28:43;;;;;;;3.70;2.90;;;;;;;;;;4994933;28;20237;-85
2020/12/27 08:31:10;;;;;;;3.03;2.83;;;;;;;;;;4996154;28;20180;-86
2020/12/27 08:33:38;;;;;;;3.03;2.83;;;;;;;;;;4994848;28;20183;-85
2020/12/27 08:36:10;;;;;;;2.93;2.70;;;;;;;;;;4996274;28;20264;-85
2020/12/27 08:38:36;;;;;;;3.03;2.83;;;;;;;;;;4994744;28;20276;-86
2020/12/27 08:41:07;;;;;;;2.70;2.57;;;;;;;;;;4994738;28;20620;-85
2020/12/27 08:44:16;;;;;;;3.90;3.53;;;;;;;;;;4994726;28;20179;-85
2020/12/27 08:46:51;;;;;;;3.00;2.80;;;;;;;;;;4919825;29;20755;-86
2020/12/27 08:49:42;;;;;;;3.33;3.07;;;;;;;;;;4935911;29;20700;-86
2020/12/27 08:52:21;;;;;;;3.00;2.80;;;;;;;;;;4980457;28;20645;-86
2020/12/27 08:55:01;;;;;;;2.80;2.63;;;;;;;;;;4994544;28;20178;-85
2020/12/27 08:57:32;;;;;;;2.90;2.70;;;;;;;;;;4995673;28;20198;-86
2020/12/27 09:00:05;;;;;;;3.10;2.90;;;;;;;;;;4995573;28;20181;-85
2020/12/27 09:02:39;;;;;;;3.17;2.93;;;;;;;;;;4994414;28;20683;-86
2020/12/27 09:05:13;;;;;;;3.20;2.90;;;;;;;;;;4994310;28;20188;-86
2020/12/27 09:07:41;;;;;;;3.03;2.83;;;;;;;;;;4995225;28;20212;-85
2020/12/27 09:10:13;;;;;;;2.93;2.80;;;;;;;;;;4994265;28;20190;-85
2020/12/27 09:12:59;;;;;;;3.07;2.87;;;;;;;;;;4994104;28;20176;-85
2020/12/27 09:15:46;;;;;;;3.00;2.80;;;;;;;;;;4995345;28;20261;-85
2020/12/27 09:18:20;;;;;;;2.67;2.53;;;;;;;;;;4995507;28;20191;-85
2020/12/27 09:20:59;;;;;;;2.73;2.53;;;;;;;;;;4995167;28;20179;-86
2020/12/27 09:23:31;;;;;;;3.20;2.80;;;;;;;;;;4995172;28;20182;-86
2020/12/27 09:26:10;;;;;;;3.47;2.97;;;;;;;;;;4993843;28;20200;-85
2020/12/27 09:28:42;;;;;;;3.10;2.90;;;;;;;;;;4993036;28;20577;-85
2020/12/27 09:31:15;;;;;;;2.93;2.57;;;;;;;;;;4995096;28;20680;-86
2020/12/27 09:33:48;;;;;;;2.97;2.77;;;;;;;;;;4993720;28;20185;-85
2020/12/27 09:36:17;;;;;;;2.63;2.40;;;;;;;;;;4993572;28;20205;-86
2020/12/27 09:38:50;;;;;;;4.00;3.60;;;;;;;;;;4994836;28;20189;-86
2020/12/27 09:41:23;;;;;;;3.17;2.70;;;;;;;;;;4994857;28;20190;-85
2020/12/27 09:43:58;;;;;;;3.43;3.13;;;;;;;;;;4995078;28;20182;-86
2020/12/27 09:46:43;;;;;;;6.33;3.00;;;;;;;;;;4994931;28;20193;-86
2020/12/27 09:49:25;;;;;;;2.90;2.70;;;;;;;;;;4993424;28;20206;-86
2020/12/27 09:52:07;;;;;;;2.73;2.53;;;;;;;;;;4993346;28;20196;-86
2020/12/27 09:54:41;;;;;;;3.10;2.90;;;;;;;;;;4994824;28;20180;-85
2020/12/27 09:57:12;;;;;;;3.27;2.97;;;;;;;;;;4994369;28;20200;-85
2020/12/27 09:59:45;;;;;;;2.90;2.70;;;;;;;;;;4993336;28;20189;-86
2020/12/27 10:02:17;;;;;;;3.00;2.70;;;;;;;;;;4994442;28;20184;-86
2020/12/27 10:04:46;;;;;;;3.50;2.77;;;;;;;;;;4993350;28;20180;-85
2020/12/27 10:07:21;;;;;;;3.20;3.00;;;;;;;;;;4992829;28;20225;-86
2020/12/27 10:09:51;;;;;;;2.80;2.60;;;;;;;;;;4993286;28;20180;-86
2020/12/27 10:12:24;;;;;;;3.23;3.03;;;;;;;;;;4993073;28;20211;-86
2020/12/27 10:14:58;;;;;;;6.67;2.53;;;;;;;;;;4993047;28;20595;-86
2020/12/27 10:17:25;;;;;;;3.53;2.63;;;;;;;;;;4994217;28;20204;-86
2020/12/27 10:19:58;;;;;;;2.97;2.77;;;;;;;;;;4994263;28;20257;-86
2020/12/27 10:22:30;;;;;;;2.97;2.60;;;;;;;;;;4993046;28;20188;-86
2020/12/27 10:25:04;;;;;;;2.87;2.60;;;;;;;;;;4993757;28;20586;-84
2020/12/27 10:27:39;;;;;;;2.90;2.70;;;;;;;;;;4993465;28;20233;-84
2020/12/27 10:30:07;;;;;;;3.27;2.70;;;;;;;;;;4994275;28;20611;-84
2020/12/27 10:32:39;;;;;;;3.00;2.80;;;;;;;;;;4994341;28;20183;-85
2020/12/27 10:35:10;;;;;;;3.03;2.83;;;;;;;;;;4994259;28;20178;-85
2020/12/27 10:37:44;;;;;;;2.97;2.77;;;;;;;;;;4993762;28;20205;-84
2020/12/27 10:40:19;;;;;;;2.60;2.40;;;;;;;;;;4992542;28;20726;-85
2020/12/27 10:42:54;;;;;;;2.80;2.60;;;;;;;;;;4992633;28;20179;-85
2020/12/27 10:45:26;;;;;;;5.83;3.03;;;;;;;;;;4994371;28;20182;-85
2020/12/27 10:47:58;;;;;;;3.97;2.80;;;;;;;;;;4993802;28;20236;-85
2020/12/27 10:50:30;;;;;;;2.80;2.60;;;;;;;;;;4992596;28;20173;-85
2020/12/27 10:53:02;;;;;;;2.80;2.60;;;;;;;;;;4992488;28;20178;-85
2020/12/27 10:55:37;;;;;;;2.90;2.70;;;;;;;;;;4992433;28;20271;-84
2020/12/27 10:58:08;;;;;;;3.13;2.93;;;;;;;;;;4993757;28;20182;-84
2020/12/27 11:00:40;;;;;;;3.80;2.57;;;;;;;;;;4992483;28;20209;-85
2020/12/27 11:03:15;;;;;;;2.80;2.60;;;;;;;;;;4992354;28;20189;-85
2020/12/27 11:05:42;;;;;;;2.60;2.40;;;;;;;;;;4993827;28;20263;-85
2020/12/27 11:08:11;;;;;;;2.87;2.67;;;;;;;;;;4993617;28;20678;-85
2020/12/27 11:10:38;;;;;;;2.40;2.30;;;;;;;;;;4993537;28;20638;-85
2020/12/27 11:13:09;;;;;;;2.37;2.27;;;;;;;;;;4993565;28;20642;-85
2020/12/27 11:15:40;;;;;;;2.90;2.70;;;;;;;;;;4993637;28;20177;-84
2020/12/27 11:18:14;;;;;;;2.73;2.53;;;;;;;;;;4993654;28;20218;-85
2020/12/27 11:20:45;;;;;;;2.47;2.27;;;;;;;;;;4993963;28;20332;-84
2020/12/27 11:23:17;;;;;;;2.73;2.53;;;;;;;;;;4993432;28;20261;-84
2020/12/27 11:25:49;;;;;;;2.90;2.70;;;;;;;;;;4992297;28;20185;-84
2020/12/27 11:28:24;;;;;;;2.53;2.40;;;;;;;;;;4992185;28;20244;-84
2020/12/27 11:30:51;;;;;;;3.00;2.80;;;;;;;;;;4992497;28;20652;-84
2020/12/27 11:33:18;;;;;;;2.50;2.40;;;;;;;;;;4993815;28;20738;-84
2020/12/27 11:35:44;;;;;;;2.93;2.73;;;;;;;;;;4993654;28;20174;-84
2020/12/27 11:38:16;;;;;;;3.03;2.83;;;;;;;;;;4992979;28;20217;-84
2020/12/27 11:40:47;;;;;;;2.20;2.10;;;;;;;;;;4993594;28;20263;-84
2020/12/27 11:43:14;;;;;;;2.40;2.30;;;;;;;;;;4993962;28;20256;-84
2020/12/27 11:45:43;;;;;;;4.10;2.80;;;;;;;;;;4993380;28;20311;-85
2020/12/27 11:48:10;;;;;;;8.23;2.73;;;;;;;;;;4993183;28;20205;-84
2020/12/27 11:50:39;;;;;;;2.90;2.70;;;;;;;;;;4994626;28;20255;-85
2020/12/27 11:53:07;;;;;;;2.90;2.67;;;;;;;;;;4995747;28;20187;-85
2020/12/27 11:55:34;;;;;;;4.23;2.70;;;;;;;;;;4995806;28;20262;-84
2020/12/27 11:58:08;;;;;;;4.93;3.03;;;;;;;;;;4995679;28;20641;-84
2020/12/27 12:00:34;;;;;;;2.33;2.17;;;;;;;;;;4995914;28;20273;-84
2020/12/27 12:03:11;;;;;;;3.40;3.10;;;;;;;;;;4996943;28;20239;-84
2020/12/27 12:05:45;;;;;;;2.80;2.43;;;;;;;;;;4996959;28;20200;-84
2020/12/27 12:08:13;;;;;;;2.83;2.47;;;;;;;;;;4996682;28;20208;-84
2020/12/27 12:10:42;;;;;;;2.90;2.70;;;;;;;;;;4995431;28;20196;-84
2020/12/27 12:13:14;;;;;;;2.47;2.37;;;;;;;;;;4995368;28;20601;-84
2020/12/27 12:15:45;;;;;;;3.93;2.93;;;;;;;;;;4996816;28;20166;-84
2020/12/27 12:18:20;;;;;;;2.80;2.60;;;;;;;;;;4995215;28;20213;-85
2020/12/27 12:20:46;;;;;;;2.67;2.47;;;;;;;;;;4995436;28;20185;-85
2020/12/27 12:23:16;;;;;;;3.00;2.70;;;;;;;;;;4995270;28;20184;-84
2020/12/27 12:25:45;;;;;;;3.20;2.90;;;;;;;;;;4996875;28;20642;-84
2020/12/27 12:28:15;;;;;;;2.83;2.63;;;;;;;;;;4995683;28;20260;-84
2020/12/27 12:30:50;;;;;;;4.37;2.83;;;;;;;;;;4997076;28;20190;-84
2020/12/27 12:33:24;;;;;;;4.40;2.93;;;;;;;;;;4996369;28;20187;-85
2020/12/27 12:35:55;;;;;;;3.07;2.63;;;;;;;;;;4994920;28;20206;-85
2020/12/27 12:38:28;;;;;;;2.97;2.77;;;;;;;;;;4995140;28;20537;-84
2020/12/27 12:40:59;;;;;;;2.47;2.27;;;;;;;;;;4996169;28;20638;-84
2020/12/27 12:43:31;;;;;;;3.87;2.80;;;;;;;;;;4994991;28;20174;-84
2020/12/27 12:45:59;;;;;;;2.60;2.40;;;;;;;;;;4994659;28;20212;-85
2020/12/27 12:48:27;;;;;;;2.47;2.33;;;;;;;;;;4996002;28;20590;-85
2020/12/27 12:50:59;;;;;;;2.43;2.27;;;;;;;;;;4996035;28;20235;-84
2020/12/27 12:53:31;;;;;;;2.60;2.40;;;;;;;;;;4994549;28;20239;-85
2020/12/27 12:56:01;;;;;;;2.40;2.30;;;;;;;;;;4994501;28;20201;-85
2020/12/27 12:58:35;;;;;;;3.93;2.57;;;;;;;;;;4996147;28;20237;-83
2020/12/27 13:01:04;;;;;;;2.40;2.30;;;;;;;;;;4995148;28;20178;-83
2020/12/27 13:03:35;;;;;;;2.40;2.30;;;;;;;;;;4995915;28;20555;-84
2020/12/27 13:06:11;;;;;;;2.27;2.13;;;;;;;;;;5068829;23;20213;-85
2020/12/27 13:08:41;;;;;;;2.33;2.13;;;;;;;;;;4990622;28;20308;-85
2020/12/27 13:11:16;;;;;;;7.17;2.73;;;;;;;;;;4976117;28;20237;-85
2020/12/27 13:13:50;;;;;;;2.03;1.93;;;;;;;;;;4974773;28;20178;-83
2020/12/27 13:16:23;;;;;;;2.57;2.40;;;;;;;;;;4976529;28;20569;-84
2020/12/27 13:18:51;;;;;;;2.20;2.10;;;;;;;;;;4976264;28;20182;-84
2020/12/27 13:21:26;;;;;;;2.60;2.40;;;;;;;;;;4975915;28;20178;-84
2020/12/27 13:23:56;;;;;;;2.40;2.20;;;;;;;;;;4975891;28;20178;-84
2020/12/27 13:26:26;;;;;;;2.63;2.47;;;;;;;;;;4975640;28;20285;-84
2020/12/27 13:28:58;;;;;;;2.63;2.30;;;;;;;;;;4990620;28;20321;-84
2020/12/27 13:31:30;;;;;;;2.60;2.40;;;;;;;;;;4975750;28;20253;-84
2020/12/27 13:33:59;;;;;;;2.70;2.50;;;;;;;;;;4975541;28;20643;-84
2020/12/27 13:36:30;;;;;;;8.13;2.30;;;;;;;;;;4975504;28;20224;-82
2020/12/27 13:38:58;;;;;;;4.33;2.30;;;;;;;;;;4975529;28;20175;-84
2020/12/27 13:41:30;;;;;;;2.27;2.17;;;;;;;;;;4975541;28;20203;-84
2020/12/27 13:43:57;;;;;;;2.33;2.23;;;;;;;;;;4975512;28;20222;-82
2020/12/27 13:46:24;;;;;;;2.50;2.30;;;;;;;;;;4975920;28;20194;-82
2020/12/27 13:48:55;;;;;;;3.23;2.97;;;;;;;;;;4990607;28;20296;-81
2020/12/27 13:51:28;;;;;;;2.73;2.43;;;;;;;;;;4975424;28;20639;-83
2020/12/27 13:53:59;;;;;;;2.30;2.20;;;;;;;;;;4975345;28;20167;-84
2020/12/27 13:56:29;;;;;;;2.30;2.20;;;;;;;;;;4975170;28;20274;-84
2020/12/27 13:58:56;;;;;;;2.60;2.40;;;;;;;;;;4990332;28;20178;-83
2020/12/27 14:01:25;;;;;;;2.87;2.67;;;;;;;;;;4975157;28;20213;-83
2020/12/27 14:03:52;;;;;;;2.40;2.30;;;;;;;;;;4989976;28;20175;-84
2020/12/27 14:06:29;;;;;;;2.90;2.60;;;;;;;;;;4974663;28;20222;-84
2020/12/27 14:08:58;;;;;;;3.27;2.73;;;;;;;;;;4989963;28;20210;-84
2020/12/27 14:11:26;;;;;;;3.27;2.93;;;;;;;;;;4989918;28;20174;-85
2020/12/27 14:13:52;;;;;;;2.40;2.30;;;;;;;;;;4974522;28;20181;-84
2020/12/27 14:16:19;;;;;;;2.77;2.57;;;;;;;;;;4974979;28;20195;-84
2020/12/27 14:18:47;;;;;;;4.30;2.40;;;;;;;;;;4975149;28;20178;-84
2020/12/27 14:21:21;;;;;;;3.73;3.13;;;;;;;;;;4974844;28;20759;-85
2020/12/27 14:23:50;;;;;;;2.80;2.60;;;;;;;;;;4975129;28;20174;-85
2020/12/27 14:26:17;;;;;;;3.10;2.90;;;;;;;;;;4989709;28;20681;-84
2020/12/27 14:28:43;;;;;;;3.23;3.03;;;;;;;;;;4989532;28;20217;-85
2020/12/27 14:31:11;;;;;;;2.70;2.60;;;;;;;;;;4989798;28;20178;-85
2020/12/27 14:33:41;;;;;;;2.73;2.53;;;;;;;;;;4990140;28;20649;-85
2020/12/27 14:36:09;;;;;;;4.77;2.70;;;;;;;;;;4974616;28;20171;-85
2020/12/27 14:38:35;;;;;;;3.13;2.93;;;;;;;;;;4989744;28;20669;-85
2020/12/27 14:41:02;;;;;;;3.03;2.83;;;;;;;;;;4989560;28;20220;-85
2020/12/27 14:43:30;;;;;;;3.47;3.17;;;;;;;;;;4989615;28;20178;-85
2020/12/27 14:45:59;;;;;;;3.20;2.53;;;;;;;;;;4974714;28;20173;-85
2020/12/27 14:48:30;;;;;;;2.90;2.70;;;;;;;;;;4989440;28;20201;-84
2020/12/27 14:50:56;;;;;;;2.70;2.50;;;;;;;;;;4989969;28;20329;-84
2020/12/27 14:53:22;;;;;;;3.60;3.17;;;;;;;;;;4989426;28;20262;-84
2020/12/27 14:55:50;;;;;;;2.97;2.77;;;;;;;;;;4989291;28;20205;-84
2020/12/27 14:58:18;;;;;;;3.80;3.50;;;;;;;;;;4974266;28;20278;-85
2020/12/27 15:00:46;;;;;;;3.30;3.00;;;;;;;;;;4989283;28;20188;-85
2020/12/27 15:03:13;;;;;;;3.23;2.80;;;;;;;;;;4974273;28;20212;-84
2020/12/27 15:05:42;;;;;;;4.63;3.40;;;;;;;;;;4989250;28;20182;-84
2020/12/27 15:08:09;;;;;;;2.97;2.67;;;;;;;;;;4989062;28;20256;-84
2020/12/27 15:10:40;;;;;;;3.30;3.00;;;;;;;;;;4989355;28;20175;-84